This is the latest recevied weather packets stored in our database for station/object N3SBK. If no packets are shown the sender has not sent any weather packets the latest 10 day(s).
| Time | Temp. | Humidity | Pressure | Rain* | Wind** | Luminosity | Snow |
|---|---|---|---|---|---|---|---|
| 1777978957 | 17.22° C | 59% | 1001.3 hPa | 0 mm | - | 16 W/m² | - |
| 1777978653 | 17.22° C | 61% | 1001.2 hPa | 0 mm | - | 8 W/m² | - |
| 1777978348 | 17.22° C | 61% | 1001.1 hPa | 0 mm | - | 13 W/m² | - |
| 1777978045 | 17.22° C | 61% | 1001.1 hPa | 0 mm | - | 12 W/m² | - |
| 1777977743 | 16.11° C | 63% | 1001.1 hPa | 0 mm | - | 6 W/m² | - |
| 1777977439 | 16.11° C | 65% | 1000.7 hPa | 0 mm | - | 5 W/m² | - |
| 1777977137 | 16.11° C | 66% | 1000.7 hPa | 1.27 mm | - | 4 W/m² | - |
| 1777976834 | 16.67° C | 64% | 1000.8 hPa | 1.27 mm | - | 2 W/m² | - |
| 1777976532 | 16.67° C | 63% | 1000.5 hPa | 0 mm | - | 1 W/m² | - |
| 1777976231 | 16.11° C | 66% | 1000.5 hPa | 0 mm | - | 0 W/m² | - |
| 1777975926 | 16.11° C | 67% | 1000.7 hPa | 0 mm | - | 0 W/m² | - |
| 1777975623 | 16.11° C | 67% | 1000.5 hPa | 0 mm | - | 0 W/m² | - |
| 1777975320 | 15.56° C | 69% | 1000.5 hPa | 0 mm | - | 0 W/m² | - |
| 1777975015 | 15° C | 71% | 1000.5 hPa | 0 mm | - | 0 W/m² | - |
| 1777974714 | 14.44° C | 74% | 1000.5 hPa | 0 mm | - | 0 W/m² | - |
| 1777974409 | 13.89° C | 80% | 1000.3 hPa | 0 mm | - | 0 W/m² | - |
| 1777974105 | 13.33° C | 84% | 1000.2 hPa | 0 mm | - | 0 W/m² | - |
| 1777973802 | 12.78° C | 88% | 1000.2 hPa | 0 mm | - | 0 W/m² | - |
| 1777973499 | 13.33° C | 88% | 1000.4 hPa | 0 mm | - | 0 W/m² | - |
| 1777973196 | 13.33° C | 88% | 1000.1 hPa | 0 mm | - | 0 W/m² | - |
| 1777972895 | 12.78° C | 89% | 1000.2 hPa | 0 mm | - | 0 W/m² | - |
| 1777972591 | 12.78° C | 90% | 1000.4 hPa | 0 mm | - | 0 W/m² | - |
| 1777972290 | 12.78° C | 91% | 1000.2 hPa | 0 mm | - | 0 W/m² | - |
| 1777971987 | 12.78° C | 90% | 1000.5 hPa | 0 mm | - | 0 W/m² | - |
| 1777971685 | 13.33° C | 89% | 1000.6 hPa | 0 mm | - | 0 W/m² | - |
* Rain latest hour (hover to see other rain measurements)
** Current wind speed in m/s (hover to see current wind gust speed)